Time;durP1;ratioP1;P1;durP2;ratioP2;P2;SDS_P1;SDS_P2;PMS_P1;PMS_P2;Temp;Humidity;BMP_temperature;BMP_pressure;BME280_temperature;BME280_humidity;BME280_pressure;Samples;Min_cycle;Max_cycle;Signal;HPM_P1;HPM_P2
2022/03/10 00:00:20;;;;;;;42.95;15.93;;;;;;;-0.67;54.44;97264.22;2066795;28;20242;-62
2022/03/10 00:01:22;;;;;;;36.83;15.15;;;;;;;-0.77;54.59;97262.66;2067312;28;20254;-62
2022/03/10 00:02:24;;;;;;;32.05;14.55;;;;;;;-0.83;55.10;97263.56;2068512;28;20263;-62
2022/03/10 00:03:25;;;;;;;37.75;15.65;;;;;;;-0.72;54.30;97266.03;2067071;28;20224;-63
2022/03/10 00:04:27;;;;;;;43.38;15.82;;;;;;;-0.81;54.84;97272.13;2068771;28;20550;-62
2022/03/10 00:05:29;;;;;;;35.80;15.55;;;;;;;-0.76;54.58;97263.53;2069240;28;20691;-62
2022/03/10 00:06:30;;;;;;;41.75;15.30;;;;;;;-0.84;54.99;97261.06;2068192;28;20594;-62
2022/03/10 00:07:31;;;;;;;36.67;14.98;;;;;;;-0.82;55.40;97267.03;2069065;28;20200;-62
2022/03/10 00:08:33;;;;;;;41.55;14.88;;;;;;;-0.90;55.02;97263.69;2067519;28;20666;-62
2022/03/10 00:09:34;;;;;;;50.42;16.00;;;;;;;-0.95;55.23;97266.31;2066150;28;20187;-62
2022/03/10 00:10:36;;;;;;;37.40;14.90;;;;;;;-0.96;55.31;97274.91;2068863;28;20240;-62
2022/03/10 00:11:38;;;;;;;41.03;15.85;;;;;;;-0.96;55.59;97276.63;2068371;28;20208;-62
2022/03/10 00:12:46;;;;;;;39.35;15.90;;;;;;;-0.80;54.93;97273.84;2069466;28;20198;-62
2022/03/10 00:13:48;;;;;;;53.58;14.48;;;;;;;-0.87;55.06;97264.50;2068967;28;20204;-62
2022/03/10 00:14:50;;;;;;;42.70;16.52;;;;;;;-0.84;55.00;97273.91;2068183;28;20200;-62
2022/03/10 00:15:51;;;;;;;36.90;15.30;;;;;;;-0.90;55.39;97276.53;2070224;28;20205;-62
2022/03/10 00:16:53;;;;;;;30.98;14.60;;;;;;;-0.89;55.09;97273.09;2067899;28;20209;-62
2022/03/10 00:17:55;;;;;;;34.30;15.70;;;;;;;-0.95;55.56;97279.16;2069609;28;20198;-62
2022/03/10 00:18:56;;;;;;;36.05;15.23;;;;;;;-0.95;55.33;97278.31;2065528;28;20194;-62
2022/03/10 00:19:57;;;;;;;44.03;15.93;;;;;;;-0.92;55.33;97270.56;2068041;28;20199;-62
2022/03/10 00:20:59;;;;;;;33.42;14.35;;;;;;;-0.97;55.76;97265.47;2069763;28;20202;-62
2022/03/10 00:22:01;;;;;;;31.25;13.73;;;;;;;-0.99;55.69;97280.09;2068880;28;20212;-62
2022/03/10 00:23:03;;;;;;;36.05;14.80;;;;;;;-1.02;55.83;97275.84;2069498;28;20201;-62
2022/03/10 00:24:04;;;;;;;30.13;14.43;;;;;;;-1.01;55.87;97269.81;2067537;28;20200;-62
2022/03/10 00:25:06;;;;;;;35.63;16.02;;;;;;;-1.01;56.02;97279.25;2065980;28;20222;-62
2022/03/10 00:26:08;;;;;;;32.08;13.85;;;;;;;-1.03;55.74;97281.00;2067889;28;20205;-62
2022/03/10 00:27:09;;;;;;;43.33;16.85;;;;;;;-1.06;56.06;97279.31;2067542;28;20206;-63
2022/03/10 00:28:11;;;;;;;36.85;15.82;;;;;;;-1.08;55.89;97275.91;2068339;28;20198;-62
2022/03/10 00:29:13;;;;;;;41.53;16.15;;;;;;;-1.12;55.90;97284.50;2068171;28;20616;-62
2022/03/10 00:30:15;;;;;;;32.45;16.23;;;;;;;-1.16;56.14;97277.69;2067135;28;20758;-62
2022/03/10 00:31:16;;;;;;;44.65;16.73;;;;;;;-1.05;55.99;97283.56;2067964;28;20676;-62
2022/03/10 00:32:20;;;;;;;29.85;14.27;;;;;;;-1.02;55.54;97285.25;2067018;28;20296;-62
2022/03/10 00:33:22;;;;;;;36.72;16.17;;;;;;;-1.10;56.33;97290.47;2068478;28;20196;-62
2022/03/10 00:34:23;;;;;;;35.60;15.98;;;;;;;-1.15;56.08;97287.13;2069167;28;20213;-62
2022/03/10 00:35:25;;;;;;;35.15;14.35;;;;;;;-1.24;56.39;97292.38;2068200;28;20698;-62
2022/03/10 00:36:30;;;;;;;35.78;15.20;;;;;;;-1.40;56.76;97292.53;2067277;28;20347;-62
2022/03/10 00:37:32;;;;;;;29.63;14.45;;;;;;;-1.36;56.99;97284.78;2068384;28;20201;-62
2022/03/10 00:38:34;;;;;;;43.67;17.98;;;;;;;-1.44;57.43;97297.72;2069697;28;20515;-62
2022/03/10 00:39:35;;;;;;;48.10;16.20;;;;;;;-1.30;56.92;97289.88;2066981;28;20213;-62
2022/03/10 00:40:36;;;;;;;31.83;15.00;;;;;;;-1.35;57.02;97289.06;2067181;28;20221;-62
2022/03/10 00:41:38;;;;;;;39.97;14.80;;;;;;;-1.32;56.63;97289.03;2066800;28;20199;-62
2022/03/10 00:42:41;;;;;;;31.70;14.73;;;;;;;-1.29;56.61;97286.44;2065568;28;20208;-62
2022/03/10 00:43:43;;;;;;;37.25;15.55;;;;;;;-1.28;57.10;97294.09;2067498;28;20208;-62
2022/03/10 00:44:44;;;;;;;42.17;15.75;;;;;;;-1.18;56.55;97291.44;2066741;28;20203;-62
2022/03/10 00:45:45;;;;;;;37.17;16.15;;;;;;;-1.18;56.21;97292.28;2066995;28;20224;-62
2022/03/10 00:46:47;;;;;;;35.35;14.10;;;;;;;-1.31;56.63;97296.72;2067980;28;20203;-62
2022/03/10 00:47:49;;;;;;;32.30;14.45;;;;;;;-1.25;56.56;97298.38;2068511;28;20230;-62
2022/03/10 00:48:50;;;;;;;40.70;15.93;;;;;;;-1.11;56.39;97299.06;2070261;28;20542;-62
2022/03/10 00:49:51;;;;;;;37.83;15.18;;;;;;;-1.14;56.37;97298.25;2066789;28;20198;-62
2022/03/10 00:50:53;;;;;;;31.85;15.15;;;;;;;-1.24;56.09;97289.78;2068975;28;20210;-63
2022/03/10 00:51:54;;;;;;;33.10;14.90;;;;;;;-1.26;56.20;97297.50;2068580;28;20203;-62
2022/03/10 00:52:56;;;;;;;32.00;14.40;;;;;;;-1.35;56.63;97301.91;2067581;28;20210;-62
2022/03/10 00:53:57;;;;;;;32.17;14.80;;;;;;;-1.41;57.21;97298.53;2066484;28;20653;-62
2022/03/10 00:54:59;;;;;;;34.60;15.73;;;;;;;-1.39;56.96;97298.53;2068107;28;20208;-62
2022/03/10 00:56:01;;;;;;;34.95;15.10;;;;;;;-1.34;57.33;97301.03;2069242;28;20229;-62
2022/03/10 00:57:02;;;;;;;30.67;16.15;;;;;;;-1.40;57.24;97297.66;2068120;28;20201;-62
2022/03/10 00:58:04;;;;;;;30.33;15.23;;;;;;;-1.45;57.50;97294.31;2066523;28;20195;-62
2022/03/10 00:59:05;;;;;;;33.78;14.30;;;;;;;-1.48;57.29;97296.88;2065110;28;20201;-62
2022/03/10 01:00:08;;;;;;;41.80;15.18;;;;;;;-1.49;57.70;97291.75;2066085;28;20665;-62
2022/03/10 01:01:10;;;;;;;32.15;14.00;;;;;;;-1.46;57.42;97302.88;2068706;28;20213;-62
2022/03/10 01:02:12;;;;;;;40.45;16.40;;;;;;;-1.44;57.38;97292.59;2065067;28;20848;-62
2022/03/10 01:03:14;;;;;;;30.20;14.68;;;;;;;-1.47;57.16;97293.47;2067673;28;20201;-62
2022/03/10 01:04:15;;;;;;;39.88;15.68;;;;;;;-1.48;57.11;97289.19;2067600;28;20248;-62
2022/03/10 01:05:17;;;;;;;31.10;15.27;;;;;;;-1.56;57.56;97285.00;2067032;28;20223;-62
2022/03/10 01:06:18;;;;;;;38.10;16.45;;;;;;;-1.60;57.62;97286.75;2066232;28;20690;-62
2022/03/10 01:07:19;;;;;;;47.50;17.00;;;;;;;-1.53;57.20;97290.97;2068079;28;20209;-62
2022/03/10 01:08:21;;;;;;;41.40;15.68;;;;;;;-1.55;57.55;97290.09;2068685;28;20217;-62
2022/03/10 01:09:22;;;;;;;38.38;15.02;;;;;;;-1.44;57.15;97293.41;2067941;28;20194;-62
2022/03/10 01:10:24;;;;;;;39.88;16.80;;;;;;;-1.53;57.41;97295.22;2068702;28;20658;-62
2022/03/10 01:11:25;;;;;;;29.70;14.93;;;;;;;-1.45;57.17;97299.44;2066527;28;20558;-62
2022/03/10 01:12:27;;;;;;;29.13;14.25;;;;;;;-1.66;57.28;97273.97;2068251;28;20665;-62
2022/03/10 01:13:28;;;;;;;34.95;16.15;;;;;;;-1.58;58.09;97295.28;2068527;28;20686;-62
2022/03/10 01:14:30;;;;;;;39.03;16.25;;;;;;;-1.59;58.13;97293.56;2068653;28;20462;-62
2022/03/10 01:15:32;;;;;;;29.05;15.77;;;;;;;-1.46;57.38;97297.72;2070519;28;20220;-62
2022/03/10 01:16:33;;;;;;;43.90;15.35;;;;;;;-1.34;56.92;97283.91;2068921;28;20218;-62
2022/03/10 01:17:36;;;;;;;38.38;16.35;;;;;;;-1.35;57.08;97289.06;2069523;28;20191;-62
2022/03/10 01:18:37;;;;;;;34.42;14.73;;;;;;;-1.49;57.09;97287.50;2068426;28;20191;-62
2022/03/10 01:19:39;;;;;;;31.90;15.65;;;;;;;-1.62;57.61;97283.34;2068162;28;20554;-62
2022/03/10 01:20:40;;;;;;;37.30;17.00;;;;;;;-1.70;57.53;97273.13;2066423;28;20223;-62
2022/03/10 01:21:42;;;;;;;37.78;15.50;;;;;;;-1.62;57.43;97276.47;2069919;28;20809;-62
2022/03/10 01:22:44;;;;;;;33.58;16.65;;;;;;;-1.61;57.89;97279.88;2062851;28;20715;-62
2022/03/10 01:23:45;;;;;;;37.97;17.02;;;;;;;-1.48;57.41;97281.47;2069698;28;20213;-62
2022/03/10 01:24:49;;;;;;;31.75;15.10;;;;;;;-1.61;57.88;97278.19;2070905;28;20195;-62
2022/03/10 01:25:51;;;;;;;42.67;17.38;;;;;;;-1.63;57.83;97267.09;2070964;28;20200;-62
2022/03/10 01:26:53;;;;;;;31.50;15.10;;;;;;;-1.59;58.10;97280.72;2070388;28;20221;-62
2022/03/10 01:27:54;;;;;;;37.20;16.45;;;;;;;-1.58;58.06;97273.88;2069679;28;20194;-62
2022/03/10 01:28:56;;;;;;;35.78;16.10;;;;;;;-1.50;57.55;97280.66;2068804;28;20221;-62
2022/03/10 01:29:57;;;;;;;29.67;15.50;;;;;;;-1.56;57.91;97285.00;2069095;28;20198;-62
2022/03/10 01:30:59;;;;;;;36.72;16.33;;;;;;;-1.51;57.52;97280.66;2067882;28;20209;-62
2022/03/10 01:32:01;;;;;;;34.97;15.20;;;;;;;-1.57;57.77;97280.72;2068247;28;20199;-62
2022/03/10 01:33:02;;;;;;;33.78;15.98;;;;;;;-1.68;58.35;97279.09;2069145;28;20685;-62
2022/03/10 01:34:07;;;;;;;41.03;15.98;;;;;;;-1.72;58.26;97279.16;2069736;28;20199;-63
2022/03/10 01:35:09;;;;;;;43.60;17.13;;;;;;;-1.71;57.98;97274.00;2070354;28;20766;-62
2022/03/10 01:36:11;;;;;;;39.85;16.98;;;;;;;-1.68;57.90;97276.53;2066589;28;20234;-62
2022/03/10 01:37:12;;;;;;;35.13;16.75;;;;;;;-1.62;57.91;97276.47;2068321;28;20202;-62
2022/03/10 01:38:14;;;;;;;35.60;14.95;;;;;;;-1.66;57.93;97279.09;2069484;28;20194;-62
2022/03/10 01:39:15;;;;;;;35.97;16.85;;;;;;;-1.64;57.80;97277.38;2070159;28;20203;-62
2022/03/10 01:40:18;;;;;;;34.92;16.23;;;;;;;-1.67;57.66;97275.66;2068193;28;20577;-62
2022/03/10 01:41:20;;;;;;;39.40;15.40;;;;;;;-1.57;57.64;97275.56;2070270;28;20204;-62
2022/03/10 01:42:22;;;;;;;35.35;15.85;;;;;;;-1.63;57.69;97281.63;2069364;28;20203;-62
2022/03/10 01:43:24;;;;;;;43.13;16.63;;;;;;;-1.58;57.82;97282.44;2071185;28;20205;-62
2022/03/10 01:44:27;;;;;;;33.17;15.93;;;;;;;-1.60;58.11;97284.19;2067750;28;20198;-62
2022/03/10 01:45:29;;;;;;;43.92;16.77;;;;;;;-1.66;57.64;97277.38;2069162;28;20230;-62
2022/03/10 01:46:31;;;;;;;36.90;16.63;;;;;;;-1.74;57.89;97286.03;2069911;28;20196;-62
2022/03/10 01:47:33;;;;;;;33.70;15.52;;;;;;;-1.64;57.76;97274.78;2069558;28;20655;-62
2022/03/10 01:48:35;;;;;;;35.20;15.10;;;;;;;-1.61;57.97;97273.06;2069701;28;20194;-62
2022/03/10 01:49:37;;;;;;;36.95;16.42;;;;;;;-1.62;57.60;97273.06;2069330;28;20209;-62
2022/03/10 01:50:39;;;;;;;35.60;16.92;;;;;;;-1.59;57.80;97280.72;2070930;28;20231;-62
2022/03/10 01:51:41;;;;;;;31.50;14.68;;;;;;;-1.60;58.00;97279.03;2070175;28;20195;-62
2022/03/10 01:52:44;;;;;;;34.03;14.52;;;;;;;-1.68;57.87;97276.53;2069633;28;20233;-62
2022/03/10 01:53:48;;;;;;;33.30;15.27;;;;;;;-1.58;57.84;97272.16;2068110;28;20204;-62
2022/03/10 01:54:50;;;;;;;38.38;14.48;;;;;;;-1.57;57.41;97268.72;2067637;28;20209;-62
2022/03/10 01:55:51;;;;;;;33.45;16.05;;;;;;;-1.60;57.68;97273.91;2068566;28;20203;-62
2022/03/10 01:56:53;;;;;;;32.35;15.10;;;;;;;-1.66;57.95;97261.13;2069742;28;20206;-62
2022/03/10 01:57:55;;;;;;;36.55;16.13;;;;;;;-1.55;58.02;97259.28;2069393;28;20701;-62
2022/03/10 01:58:56;;;;;;;35.25;15.13;;;;;;;-1.52;57.96;97264.38;2069708;28;20269;-62
2022/03/10 01:59:58;;;;;;;30.10;14.45;;;;;;;-1.61;58.18;97262.78;2068459;28;20202;-62
2022/03/10 02:01:00;;;;;;;35.38;14.40;;;;;;;-1.58;58.28;97264.47;2069637;28;20206;-62
2022/03/10 02:02:02;;;;;;;29.98;14.02;;;;;;;-1.62;58.38;97266.19;2068799;28;20241;-62
2022/03/10 02:03:04;;;;;;;32.05;14.82;;;;;;;-1.57;58.27;97265.31;2070353;28;20195;-62
2022/03/10 02:04:05;;;;;;;24.38;13.30;;;;;;;-1.57;58.04;97261.00;2070048;28;20203;-62
2022/03/10 02:05:07;;;;;;;36.17;15.32;;;;;;;-1.50;57.73;97266.94;2071403;28;20593;-62
2022/03/10 02:06:10;;;;;;;28.60;14.05;;;;;;;-1.59;57.87;97262.75;2072071;28;20203;-62
2022/03/10 02:11:12;;;;;;;27.20;13.85;;;;;;;-1.70;58.66;97267.16;2067926;28;20202;-62
2022/03/10 02:12:15;;;;;;;34.13;14.15;;;;;;;-1.68;58.40;97270.56;2068261;28;20208;-62
2022/03/10 02:13:16;;;;;;;34.45;14.40;;;;;;;-1.73;58.71;97278.28;2070146;28;20206;-62
2022/03/10 02:18:21;;;;;;;38.22;15.52;;;;;;;-2.21;60.22;97265.88;2068676;28;20198;-62
2022/03/10 02:19:23;;;;;;;32.65;14.60;;;;;;;-2.17;60.10;97266.69;2069696;28;20208;-62
2022/03/10 02:20:24;;;;;;;28.05;13.93;;;;;;;-2.12;60.28;97264.09;2068604;28;20219;-62
2022/03/10 02:21:26;;;;;;;34.33;15.45;;;;;;;-2.12;59.90;97264.94;2067363;28;20195;-62
2022/03/10 02:22:28;;;;;;;31.30;14.38;;;;;;;-2.15;60.07;97259.84;2065037;28;20525;-62
2022/03/10 02:23:29;;;;;;;46.50;15.65;;;;;;;-2.05;60.11;97270.88;2068757;28;20527;-62
2022/03/10 02:24:31;;;;;;;33.92;14.82;;;;;;;-2.02;59.91;97269.16;2069139;28;20190;-62
2022/03/10 02:25:35;;;;;;;34.90;16.13;;;;;;;-2.12;59.85;97269.22;2069349;28;20229;-62
2022/03/10 02:26:37;;;;;;;31.63;15.00;;;;;;;-2.05;59.73;97270.88;2069822;28;20200;-62
2022/03/10 02:27:38;;;;;;;33.55;15.57;;;;;;;-2.01;59.99;97272.56;2070724;28;20203;-62
2022/03/10 02:28:41;;;;;;;31.25;14.75;;;;;;;-2.04;59.41;97272.56;2069231;28;20210;-62
2022/03/10 02:29:43;;;;;;;38.10;14.55;;;;;;;-2.12;59.45;97269.22;2070007;28;20207;-62
2022/03/10 02:30:44;;;;;;;29.38;13.85;;;;;;;-2.22;60.24;97264.16;2069778;28;20219;-62
2022/03/10 02:31:46;;;;;;;34.92;14.52;;;;;;;-2.20;60.19;97262.41;2068478;28;20199;-62
2022/03/10 02:32:48;;;;;;;30.95;13.80;;;;;;;-2.16;59.98;97262.41;2068802;28;20285;-62
2022/03/10 02:33:54;;;;;;;28.73;13.77;;;;;;;-2.16;59.86;97259.84;2067174;28;20203;-62
2022/03/10 02:34:56;;;;;;;30.88;14.13;;;;;;;-2.08;59.62;97255.50;2067916;28;20202;-63
2022/03/10 02:35:58;;;;;;;34.85;16.10;;;;;;;-1.99;59.36;97258.84;2069886;28;20522;-62
2022/03/10 02:36:59;;;;;;;31.52;13.80;;;;;;;-1.94;59.22;97255.38;2070882;28;20209;-62
2022/03/10 02:38:02;;;;;;;39.88;15.80;;;;;;;-1.90;59.17;97255.34;2069606;28;20210;-62
2022/03/10 02:39:03;;;;;;;28.75;14.82;;;;;;;-1.94;59.15;97251.13;2068373;28;20205;-62
2022/03/10 02:40:06;;;;;;;33.13;13.68;;;;;;;-1.94;59.17;97253.69;2067064;28;20230;-62
2022/03/10 02:41:08;;;;;;;39.17;14.95;;;;;;;-2.05;59.52;97251.19;2069679;28;20214;-62
2022/03/10 02:42:11;;;;;;;25.50;13.98;;;;;;;-2.09;59.27;97243.53;2070892;28;20652;-62
2022/03/10 02:43:12;;;;;;;29.25;14.10;;;;;;;-2.10;59.32;97245.22;2069990;28;20204;-62
2022/03/10 02:44:14;;;;;;;37.30;15.38;;;;;;;-2.11;59.51;97248.69;2069354;28;20199;-62
2022/03/10 02:45:15;;;;;;;30.10;13.75;;;;;;;-2.11;59.64;97251.25;2068975;28;20713;-61
2022/03/10 02:46:17;;;;;;;34.65;15.30;;;;;;;-2.05;59.47;97255.47;2068464;28;20209;-62
2022/03/10 02:47:18;;;;;;;33.08;16.02;;;;;;;-2.09;59.60;97253.81;2070047;28;20230;-62
2022/03/10 02:48:20;;;;;;;33.53;15.35;;;;;;;-2.26;60.26;97235.97;2070510;28;20210;-62
2022/03/10 02:49:22;;;;;;;38.05;15.27;;;;;;;-2.12;60.04;97251.25;2070569;28;20693;-62
2022/03/10 02:50:23;;;;;;;36.40;16.05;;;;;;;-2.11;59.84;97256.38;2070784;28;20245;-62
2022/03/10 02:51:25;;;;;;;37.67;15.77;;;;;;;-2.19;60.29;97251.31;2065773;28;20214;-62
2022/03/10 02:52:26;;;;;;;37.65;15.00;;;;;;;-2.19;59.85;97258.16;2068692;28;20199;-62
2022/03/10 02:53:28;;;;;;;32.70;13.45;;;;;;;-2.09;60.04;97258.94;2067153;28;20198;-62
2022/03/10 02:54:30;;;;;;;37.55;17.05;;;;;;;-2.20;60.02;97259.00;2067303;28;20195;-62
2022/03/10 02:55:32;;;;;;;36.88;14.80;;;;;;;-2.21;60.17;97258.16;2068750;28;20225;-62
2022/03/10 02:56:33;;;;;;;34.97;15.25;;;;;;;-2.10;59.28;97257.22;2070600;28;20732;-62
2022/03/10 02:57:37;;;;;;;33.22;13.82;;;;;;;-1.97;59.09;97265.69;2068718;28;20198;-62
2022/03/10 02:58:39;;;;;;;32.65;15.10;;;;;;;-1.99;59.08;97263.97;2067488;28;20206;-62
2022/03/10 02:59:41;;;;;;;32.53;15.75;;;;;;;-1.96;59.33;97255.41;2068985;28;20679;-62
2022/03/10 03:00:43;;;;;;;30.65;14.30;;;;;;;-1.81;58.70;97262.09;2066769;28;20222;-62
2022/03/10 03:01:44;;;;;;;33.72;13.98;;;;;;;-1.92;59.17;97266.47;2070787;28;20205;-62
2022/03/10 03:02:46;;;;;;;35.10;14.95;;;;;;;-1.94;59.01;97270.78;2070205;28;20646;-62
2022/03/10 03:03:48;;;;;;;31.23;15.18;;;;;;;-2.04;59.28;97270.00;2069678;28;20197;-62
2022/03/10 03:04:49;;;;;;;37.28;15.85;;;;;;;-2.04;59.29;97273.44;2068962;28;20233;-62
2022/03/10 03:05:51;;;;;;;31.38;15.45;;;;;;;-2.16;59.83;97264.97;2069585;28;20203;-62
2022/03/10 03:06:52;;;;;;;26.75;13.93;;;;;;;-2.16;59.81;97263.25;2067130;28;20360;-62
2022/03/10 03:07:54;;;;;;;33.97;14.57;;;;;;;-2.16;59.84;97262.41;2070264;28;20875;-62
2022/03/10 03:08:55;;;;;;;29.67;15.60;;;;;;;-2.11;59.66;97270.94;2068462;28;20190;-62
2022/03/10 03:09:56;;;;;;;32.85;14.52;;;;;;;-2.14;59.93;97274.34;2069298;28;20237;-62
2022/03/10 03:10:58;;;;;;;34.40;15.05;;;;;;;-2.12;59.61;97274.34;2070174;28;20245;-63
2022/03/10 03:11:59;;;;;;;33.45;15.40;;;;;;;-2.17;59.54;97269.25;2068336;28;20229;-62
2022/03/10 03:13:01;;;;;;;32.83;14.23;;;;;;;-2.16;59.72;97270.94;2070022;28;20202;-62
2022/03/10 03:14:04;;;;;;;34.50;15.68;;;;;;;-2.13;59.60;97270.94;2069331;28;20209;-62
2022/03/10 03:15:06;;;;;;;39.17;15.60;;;;;;;-2.21;60.15;97271.00;2066508;28;20230;-62
2022/03/10 03:16:07;;;;;;;31.92;15.00;;;;;;;-2.14;59.83;97270.94;2069009;28;20214;-62
2022/03/10 03:17:09;;;;;;;36.42;16.17;;;;;;;-2.19;60.24;97265.84;2071162;28;20230;-62
2022/03/10 03:18:11;;;;;;;32.20;15.10;;;;;;;-2.12;60.08;97270.06;2068785;28;20194;-63
2022/03/10 03:19:12;;;;;;;37.08;15.07;;;;;;;-2.17;59.99;97266.69;2067459;28;20553;-62
2022/03/10 03:20:15;;;;;;;31.33;15.18;;;;;;;-2.21;60.15;97275.28;2068678;28;20233;-63
2022/03/10 03:21:17;;;;;;;28.00;14.52;;;;;;;-2.11;59.76;97276.06;2066391;28;20692;-62
2022/03/10 03:22:20;;;;;;;28.92;14.55;;;;;;;-2.19;60.15;97268.44;2068326;28;20202;-62
2022/03/10 03:23:25;;;;;;;32.45;14.48;;;;;;;-2.17;60.10;97276.97;2069228;28;20195;-62
2022/03/10 03:24:26;;;;;;;33.10;15.40;;;;;;;-2.22;60.41;97273.56;2068336;28;20238;-60
2022/03/10 03:25:28;;;;;;;30.90;14.55;;;;;;;-2.26;60.42;97270.16;2066646;28;20226;-62
2022/03/10 03:26:29;;;;;;;35.40;15.35;;;;;;;-2.19;60.62;97278.69;2066925;28;20661;-62
2022/03/10 03:27:30;;;;;;;36.20;16.35;;;;;;;-2.22;60.56;97279.53;2064186;28;20221;-62
2022/03/10 03:28:32;;;;;;;36.20;15.20;;;;;;;-2.30;60.90;97278.75;2064281;28;20200;-62
2022/03/10 03:29:34;;;;;;;27.88;13.05;;;;;;;-2.38;60.81;97278.81;2070462;28;20198;-62
2022/03/10 03:30:35;;;;;;;35.88;16.05;;;;;;;-2.36;61.11;97276.22;2069197;28;20236;-62
2022/03/10 03:31:37;;;;;;;36.28;15.77;;;;;;;-2.34;60.88;97273.66;2068641;28;20202;-62
2022/03/10 03:32:38;;;;;;;35.05;15.48;;;;;;;-2.43;61.37;97285.69;2067132;28;20204;-62
2022/03/10 03:33:40;;;;;;;30.77;14.50;;;;;;;-2.46;61.28;97284.84;2067963;28;20221;-62
2022/03/10 03:34:41;;;;;;;32.58;14.65;;;;;;;-2.48;61.25;97294.28;2070904;28;20198;-62
2022/03/10 03:35:43;;;;;;;35.50;16.02;;;;;;;-2.48;61.68;97286.59;2068163;28;20234;-62
2022/03/10 03:36:46;;;;;;;35.10;15.85;;;;;;;-2.53;61.76;97293.44;2066053;28;20199;-62
2022/03/10 03:37:47;;;;;;;38.17;15.98;;;;;;;-2.53;61.65;97290.88;2068460;28;20657;-62
2022/03/10 03:38:48;;;;;;;38.75;16.48;;;;;;;-2.54;61.74;97291.75;2068910;28;20846;-62
2022/03/10 03:39:50;;;;;;;37.70;15.25;;;;;;;-2.54;61.53;97290.03;2069615;28;20199;-62
2022/03/10 03:40:51;;;;;;;31.08;15.05;;;;;;;-2.33;60.97;97296.75;2069914;28;20249;-62
2022/03/10 03:41:53;;;;;;;28.77;14.45;;;;;;;-2.29;60.74;97297.59;2067505;28;20216;-62
2022/03/10 03:42:54;;;;;;;29.02;14.82;;;;;;;-2.43;60.72;97289.94;2068693;28;20654;-62
2022/03/10 03:43:56;;;;;;;37.30;15.98;;;;;;;-2.36;60.83;97283.94;2069174;28;20281;-62
2022/03/10 03:44:57;;;;;;;29.55;14.25;;;;;;;-2.39;61.22;97299.38;2065067;28;20674;-62
2022/03/10 03:45:58;;;;;;;32.40;14.43;;;;;;;-2.34;61.04;97294.19;2068170;28;20210;-62
2022/03/10 03:47:00;;;;;;;36.80;15.75;;;;;;;-2.38;60.92;97290.78;2068871;28;20195;-62
2022/03/10 03:48:01;;;;;;;31.17;14.43;;;;;;;-2.41;61.06;97298.50;2068062;28;20207;-62
2022/03/10 03:49:03;;;;;;;32.70;14.40;;;;;;;-2.46;61.08;97297.69;2068690;28;20202;-62
2022/03/10 03:50:05;;;;;;;30.73;14.68;;;;;;;-2.47;61.16;97301.09;2066338;28;20199;-62
2022/03/10 03:51:06;;;;;;;35.08;15.02;;;;;;;-2.58;61.79;97303.75;2067270;28;20202;-62
2022/03/10 03:52:08;;;;;;;30.00;14.30;;;;;;;-2.60;61.87;97296.03;2067142;28;20207;-62
2022/03/10 03:53:09;;;;;;;32.88;14.88;;;;;;;-2.54;61.55;97297.72;2066634;28;20202;-62
2022/03/10 03:54:11;;;;;;;31.30;14.85;;;;;;;-2.51;61.50;97297.72;2067894;28;20199;-62
2022/03/10 03:55:13;;;;;;;30.83;14.30;;;;;;;-2.49;61.42;97297.69;2068460;28;20670;-62
2022/03/10 03:56:16;;;;;;;31.33;13.48;;;;;;;-2.45;61.80;97301.94;2068650;28;20209;-62
2022/03/10 03:57:17;;;;;;;30.50;14.48;;;;;;;-2.36;61.40;97301.03;2070771;28;20199;-62
2022/03/10 03:58:19;;;;;;;27.95;13.45;;;;;;;-2.42;61.33;97291.69;2068851;28;20199;-62
2022/03/10 03:59:20;;;;;;;29.00;13.88;;;;;;;-2.38;61.48;97293.34;2069705;28;20189;-63
2022/03/10 04:00:22;;;;;;;35.70;14.20;;;;;;;-2.44;61.60;97291.69;2069345;28;20694;-62
2022/03/10 04:01:23;;;;;;;35.08;14.02;;;;;;;-2.58;61.48;97276.38;2068139;28;20199;-62
2022/03/10 04:02:25;;;;;;;30.80;13.70;;;;;;;-2.42;61.30;97302.78;2071182;28;20210;-62
2022/03/10 04:03:27;;;;;;;48.40;15.15;;;;;;;-2.47;61.78;97293.41;2066715;28;20251;-62
2022/03/10 04:04:29;;;;;;;35.55;14.75;;;;;;;-2.55;61.80;97292.59;2068508;28;20198;-62
2022/03/10 04:05:30;;;;;;;38.10;14.65;;;;;;;-2.62;61.92;97300.34;2067353;28;20218;-62
2022/03/10 04:06:32;;;;;;;33.95;14.20;;;;;;;-2.51;61.73;97299.41;2068586;28;20249;-62
2022/03/10 04:07:34;;;;;;;32.03;14.13;;;;;;;-2.51;61.67;97301.97;2066473;28;20203;-62
2022/03/10 04:08:36;;;;;;;29.58;14.02;;;;;;;-2.46;61.76;97302.81;2068330;28;20253;-61
2022/03/10 04:09:37;;;;;;;33.42;14.35;;;;;;;-2.46;61.75;97297.69;2069661;28;20202;-62
2022/03/10 04:10:39;;;;;;;27.38;13.77;;;;;;;-2.52;61.79;97301.13;2067041;28;20218;-62
2022/03/10 04:11:41;;;;;;;35.90;16.02;;;;;;;-2.65;62.09;97300.34;2069676;28;20233;-62
2022/03/10 04:12:43;;;;;;;33.38;13.27;;;;;;;-2.68;62.31;97307.22;2066871;28;20575;-62
2022/03/10 04:13:45;;;;;;;29.80;15.13;;;;;;;-2.72;62.69;97308.94;2067401;28;20917;-62
2022/03/10 04:14:46;;;;;;;27.27;13.20;;;;;;;-2.66;62.78;97311.47;2066726;28;20202;-61
2022/03/10 04:15:51;;;;;;;26.73;13.07;;;;;;;-2.65;62.70;97312.31;2065850;28;21288;-62
2022/03/10 04:16:52;;;;;;;31.13;14.65;;;;;;;-2.80;62.79;97313.25;2066512;28;20199;-62
2022/03/10 04:17:54;;;;;;;28.48;13.38;;;;;;;-2.83;62.86;97314.09;2070426;28;20206;-62
2022/03/10 04:18:55;;;;;;;28.23;15.05;;;;;;;-2.67;62.81;97320.00;2071819;28;20289;-62
2022/03/10 04:19:57;;;;;;;28.67;14.38;;;;;;;-2.73;62.49;97307.22;2069707;28;20198;-62
2022/03/10 04:20:59;;;;;;;32.65;15.25;;;;;;;-2.67;62.55;97314.88;2066726;28;20672;-62
2022/03/10 04:22:01;;;;;;;37.70;13.57;;;;;;;-2.71;62.52;97308.06;2066874;28;20218;-62
2022/03/10 04:23:02;;;;;;;29.92;13.65;;;;;;;-2.71;62.72;97308.06;2070929;28;20672;-62
2022/03/10 04:24:04;;;;;;;32.72;13.77;;;;;;;-2.72;62.93;97314.06;2068924;28;20210;-62
2022/03/10 04:25:08;;;;;;;30.17;14.45;;;;;;;-2.69;62.88;97310.63;2067763;28;20202;-62
2022/03/10 04:26:09;;;;;;;30.02;14.00;;;;;;;-2.70;62.59;97314.91;2066151;28;20194;-62
2022/03/10 04:27:11;;;;;;;30.67;14.90;;;;;;;-2.76;62.94;97320.09;2066584;28;20208;-62
2022/03/10 04:28:13;;;;;;;34.63;15.77;;;;;;;-2.85;62.71;97309.84;2067524;28;20698;-62
2022/03/10 04:29:17;;;;;;;30.00;14.00;;;;;;;-2.86;62.89;97318.38;2067008;28;20199;-62
2022/03/10 04:30:22;;;;;;;31.55;14.05;;;;;;;-2.98;63.51;97314.16;2069290;28;20227;-62
2022/03/10 04:31:23;;;;;;;25.95;13.65;;;;;;;-3.00;63.91;97315.88;2068938;28;20205;-62
2022/03/10 04:32:25;;;;;;;31.30;14.48;;;;;;;-3.01;63.48;97317.59;2067353;28;20540;-62
2022/03/10 04:33:26;;;;;;;32.20;14.77;;;;;;;-2.96;63.16;97319.28;2066395;28;20201;-62
2022/03/10 04:34:28;;;;;;;32.67;14.60;;;;;;;-2.99;63.03;97318.44;2067182;28;20661;-62
2022/03/10 04:35:30;;;;;;;28.35;14.20;;;;;;;-2.95;62.75;97316.72;2063871;28;20225;-62
2022/03/10 04:36:31;;;;;;;31.63;13.90;;;;;;;-2.94;62.68;97313.31;2066610;28;20199;-62
2022/03/10 04:37:33;;;;;;;31.27;14.35;;;;;;;-2.89;62.84;97313.28;2065733;28;20205;-62
2022/03/10 04:38:34;;;;;;;31.42;14.60;;;;;;;-2.82;62.62;97307.28;2068060;28;20203;-62
2022/03/10 04:39:36;;;;;;;27.52;13.48;;;;;;;-2.76;62.34;97303.81;2066953;28;20195;-62
2022/03/10 04:40:37;;;;;;;34.00;14.95;;;;;;;-2.68;62.13;97312.34;2069132;28;20236;-62
2022/03/10 04:41:39;;;;;;;33.55;13.63;;;;;;;-2.84;62.40;97309.84;2066908;28;20958;-66
2022/03/10 04:42:41;;;;;;;33.92;13.90;;;;;;;-2.82;62.63;97307.28;2067507;28;20653;-62
2022/03/10 04:43:42;;;;;;;34.08;14.73;;;;;;;-2.91;62.79;97305.59;2067265;28;20201;-62
2022/03/10 04:44:44;;;;;;;30.00;14.55;;;;;;;-2.80;62.58;97300.44;2068244;28;20805;-62
2022/03/10 04:45:45;;;;;;;28.52;14.45;;;;;;;-2.85;62.59;97307.28;2069830;28;20589;-62
2022/03/10 04:46:47;;;;;;;34.47;15.60;;;;;;;-2.79;62.21;97300.41;2067627;28;20206;-62
2022/03/10 04:47:48;;;;;;;29.60;14.43;;;;;;;-2.88;62.70;97299.59;2068744;28;20195;-62
2022/03/10 04:48:50;;;;;;;29.02;14.60;;;;;;;-2.80;62.63;97298.72;2067039;28;20198;-62
2022/03/10 04:49:51;;;;;;;32.28;13.27;;;;;;;-2.78;62.96;97301.28;2069244;28;20209;-62
2022/03/10 04:50:53;;;;;;;31.35;14.70;;;;;;;-2.82;62.85;97300.44;2069568;28;20198;-62
2022/03/10 04:51:54;;;;;;;32.35;14.52;;;;;;;-2.78;62.51;97298.72;2066645;28;20287;-62